Saturday, January 20, 2018, 10:12 AM EST
Back to Local

KLWM, Lawrence Municipal Airport

Location: North Andover, MA, United States Lat: 42.717
Local Time: 10:12 AM EST (15:12 GMT) Lon: -71.133
Time Zone: US/Eastern Elev: 147 ft

Show me the last for .
Show Decoded

2018-01-20 09:54 METAR KLWM 201454Z 23010KT 10SM CLR 04/M04 A2967 RMK AO2 SLP048 T00441044 55005
                 =
2018-01-20 08:54 METAR KLWM 201354Z 22014KT 10SM CLR 03/M05 A2967 RMK AO2 SLP047 T00331050 =
2018-01-20 07:54 METAR KLWM 201254Z 21011G17KT 10SM CLR 02/M06 A2968 RMK AO2 SLP050 T00221056 =
2018-01-20 06:54 METAR KLWM 201154Z 21008KT 10SM CLR 02/M06 A2969 RMK AO2 SLP054 T00221061 10022
                 20000 56034 =
2018-01-20 05:54 METAR KLWM 201054Z AUTO 21009KT 10SM CLR 01/M06 A2970 RMK AO2 SLP059 T00111061 =
2018-01-20 04:54 METAR KLWM 200954Z AUTO 20007KT 10SM CLR 01/M07 A2973 RMK AO2 SLP069 T00061067 =
2018-01-20 03:54 METAR KLWM 200854Z AUTO 21006KT 10SM CLR 00/M07 A2979 RMK AO2 SLP088 T00001067
                 58015 =
2018-01-20 01:54 METAR KLWM 200654Z AUTO 21006KT 10SM CLR 00/M07 A2983 RMK AO2 SLP102 T00001072 =
2018-01-20 00:54 METAR KLWM 200554Z AUTO 21007KT 10SM CLR 00/M07 A2983 RMK AO2 SLP103 T00001072
                 10011 21011 58030 =
2018-01-19 23:54 METAR KLWM 200454Z AUTO 20005KT 10SM CLR M01/M07 A2987 RMK AO2 SLP117 T10061067
                 400171072 =
2018-01-19 22:54 METAR KLWM 200354Z AUTO 21007KT 10SM CLR M01/M07 A2991 RMK AO2 SLP130 T10061067
                 =
2018-01-19 21:54 METAR KLWM 200254Z 22006KT 10SM CLR M01/M07 A2992 RMK AO2 SLP133 T10061067 58001
                 =
2018-01-19 20:54 METAR KLWM 200154Z 21007KT 10SM OVC039 01/M06 A2993 RMK AO2 SLP137 T00061056 =
2018-01-19 19:54 METAR KLWM 200054Z 23006KT 10SM OVC038 01/M06 A2994 RMK AO2 SLP140 T00111056 =
2018-01-19 18:54 METAR KLWM 192354Z 20005KT 10SM OVC038 01/M06 A2992 RMK AO2 SLP135 T00111061
                 10017 20006 58005 =
2018-01-19 17:54 METAR KLWM 192254Z 20003KT 10SM OVC040 01/M06 A2993 RMK AO2 SLP136 T00111061 =
2018-01-19 16:54 METAR KLWM 192154Z 26006KT 10SM OVC039 01/M07 A2995 RMK AO2 SLP143 T00111067 =
2018-01-19 15:54 METAR KLWM 192054Z 29005KT 10SM OVC036 01/M06 A2994 RMK AO2 SLP140 T00111061
                 53003 =
2018-01-19 14:54 METAR KLWM 191954Z 25007KT 10SM OVC033 01/M06 A2993 RMK AO2 SLP137 T00111061 =
2018-01-19 13:54 METAR KLWM 191854Z 26004KT 10SM OVC035 01/M07 A2992 RMK AO2 SLP133 T00111067 =
2018-01-19 12:54 METAR KLWM 191754Z 24005KT 10SM OVC035 01/M07 A2993 RMK AO2 SLP136 T00061067
                 10006 21044 58020 =
2018-01-19 11:54 METAR KLWM 191654Z 22007KT 10SM CLR 01/M07 A2995 RMK AO2 SLP142 T00061067 =
2018-01-19 10:54 METAR KLWM 191554Z 26008KT 10SM SCT039 M01/M07 A2997 RMK AO2 SLP151 T10061072 =

Support USWX by starting your Amazon purchase here.